Terminal Aerodrome Forecast
Issued by NWS Bismarck, ND

Home | Current Version | Previous Version | Graphics & Text | Print | Product List | Glossary On
Versions: 1 2 3 4 5 6 7 8 9 10 11 12 13 14 15 16 17 18 19 20
000
FTUS43 KBIS 241700
TAFBIS
TAF
KBIS 241738Z 2418/2518 34010KT P6SM BKN025 OVC035
     FM242200 04007KT 3SM -SN BKN015 OVC035
     FM250700 09010KT 1SM -SN BR OVC015=

USA.gov is the U.S. government's official web portal to all federal, state and local government web resources and services.